sensor_id;sensor_type;location;lat;lon;timestamp;P1;durP1;ratioP1;P2;durP2;ratioP2
34711;SDS011;20941;42.408;25.634;2023-06-24T00:00:43;10.57;;;7.28;;
34711;SDS011;20941;42.408;25.634;2023-06-24T00:03:09;9.82;;;7.63;;
34711;SDS011;20941;42.408;25.634;2023-06-24T00:05:34;12.07;;;9.65;;
34711;SDS011;20941;42.408;25.634;2023-06-24T00:07:59;19.92;;;12.27;;
34711;SDS011;20941;42.408;25.634;2023-06-24T00:10:27;18.83;;;12.45;;
34711;SDS011;20941;42.408;25.634;2023-06-24T00:12:53;25.38;;;15.55;;
34711;SDS011;20941;42.408;25.634;2023-06-24T00:15:18;20.95;;;14.38;;
34711;SDS011;20941;42.408;25.634;2023-06-24T00:17:43;24.10;;;14.25;;
34711;SDS011;20941;42.408;25.634;2023-06-24T00:20:09;18.92;;;13.25;;
34711;SDS011;20941;42.408;25.634;2023-06-24T00:22:39;25.58;;;15.05;;
34711;SDS011;20941;42.408;25.634;2023-06-24T00:25:09;23.13;;;12.77;;
34711;SDS011;20941;42.408;25.634;2023-06-24T00:27:34;12.48;;;9.65;;
34711;SDS011;20941;42.408;25.634;2023-06-24T00:30:00;12.32;;;7.82;;
34711;SDS011;20941;42.408;25.634;2023-06-24T00:32:25;11.63;;;8.82;;
34711;SDS011;20941;42.408;25.634;2023-06-24T00:34:50;13.70;;;8.40;;
34711;SDS011;20941;42.408;25.634;2023-06-24T00:37:15;12.93;;;8.90;;
34711;SDS011;20941;42.408;25.634;2023-06-24T00:39:41;15.27;;;10.25;;
34711;SDS011;20941;42.408;25.634;2023-06-24T00:42:07;17.83;;;10.77;;
34711;SDS011;20941;42.408;25.634;2023-06-24T00:44:32;13.43;;;8.77;;
34711;SDS011;20941;42.408;25.634;2023-06-24T00:46:57;11.07;;;8.20;;
34711;SDS011;20941;42.408;25.634;2023-06-24T00:49:23;14.60;;;9.30;;
34711;SDS011;20941;42.408;25.634;2023-06-24T00:51:48;14.40;;;9.05;;
34711;SDS011;20941;42.408;25.634;2023-06-24T00:54:16;14.65;;;8.60;;
34711;SDS011;20941;42.408;25.634;2023-06-24T00:56:41;10.52;;;8.10;;
34711;SDS011;20941;42.408;25.634;2023-06-24T00:59:07;12.43;;;7.45;;
34711;SDS011;20941;42.408;25.634;2023-06-24T01:01:33;11.20;;;7.60;;
34711;SDS011;20941;42.408;25.634;2023-06-24T01:04:00;10.02;;;7.20;;
34711;SDS011;20941;42.408;25.634;2023-06-24T01:06:26;13.80;;;8.10;;
34711;SDS011;20941;42.408;25.634;2023-06-24T01:08:57;10.93;;;7.75;;
34711;SDS011;20941;42.408;25.634;2023-06-24T01:11:25;15.40;;;8.63;;
34711;SDS011;20941;42.408;25.634;2023-06-24T01:13:51;10.15;;;8.35;;
34711;SDS011;20941;42.408;25.634;2023-06-24T01:16:37;11.43;;;8.48;;
34711;SDS011;20941;42.408;25.634;2023-06-24T01:19:20;10.40;;;8.00;;
34711;SDS011;20941;42.408;25.634;2023-06-24T01:24:46;13.82;;;8.40;;
34711;SDS011;20941;42.408;25.634;2023-06-24T01:27:24;16.50;;;8.70;;
34711;SDS011;20941;42.408;25.634;2023-06-24T01:32:53;23.13;;;13.05;;
34711;SDS011;20941;42.408;25.634;2023-06-24T01:35:20;15.45;;;11.25;;
34711;SDS011;20941;42.408;25.634;2023-06-24T01:37:47;18.48;;;11.15;;
34711;SDS011;20941;42.408;25.634;2023-06-24T01:42:48;27.98;;;16.88;;
34711;SDS011;20941;42.408;25.634;2023-06-24T01:45:16;8.85;;;6.90;;
34711;SDS011;20941;42.408;25.634;2023-06-24T01:47:45;9.07;;;6.70;;
34711;SDS011;20941;42.408;25.634;2023-06-24T01:50:11;9.95;;;6.80;;
34711;SDS011;20941;42.408;25.634;2023-06-24T01:52:37;9.27;;;7.07;;
34711;SDS011;20941;42.408;25.634;2023-06-24T01:55:04;11.32;;;8.75;;
34711;SDS011;20941;42.408;25.634;2023-06-24T01:57:31;20.05;;;12.95;;
34711;SDS011;20941;42.408;25.634;2023-06-24T01:59:58;13.75;;;11.38;;
34711;SDS011;20941;42.408;25.634;2023-06-24T02:02:24;12.68;;;8.63;;
34711;SDS011;20941;42.408;25.634;2023-06-24T02:04:50;12.60;;;7.88;;
34711;SDS011;20941;42.408;25.634;2023-06-24T02:07:17;12.52;;;7.80;;
34711;SDS011;20941;42.408;25.634;2023-06-24T02:09:44;10.63;;;6.72;;
34711;SDS011;20941;42.408;25.634;2023-06-24T02:12:10;9.55;;;7.30;;
34711;SDS011;20941;42.408;25.634;2023-06-24T02:14:36;13.07;;;7.32;;
34711;SDS011;20941;42.408;25.634;2023-06-24T02:17:03;15.70;;;7.80;;
34711;SDS011;20941;42.408;25.634;2023-06-24T02:19:30;14.00;;;8.02;;
34711;SDS011;20941;42.408;25.634;2023-06-24T02:21:58;14.02;;;8.60;;
34711;SDS011;20941;42.408;25.634;2023-06-24T02:24:24;15.57;;;9.70;;
34711;SDS011;20941;42.408;25.634;2023-06-24T02:26:51;17.98;;;8.60;;
34711;SDS011;20941;42.408;25.634;2023-06-24T02:29:17;16.70;;;8.20;;
34711;SDS011;20941;42.408;25.634;2023-06-24T02:31:42;11.65;;;7.60;;
34711;SDS011;20941;42.408;25.634;2023-06-24T02:34:08;11.88;;;7.65;;
34711;SDS011;20941;42.408;25.634;2023-06-24T02:36:33;13.32;;;7.63;;
34711;SDS011;20941;42.408;25.634;2023-06-24T02:38:58;12.73;;;7.70;;
34711;SDS011;20941;42.408;25.634;2023-06-24T02:41:24;13.05;;;7.30;;
34711;SDS011;20941;42.408;25.634;2023-06-24T02:43:49;18.15;;;13.20;;
34711;SDS011;20941;42.408;25.634;2023-06-24T02:46:14;25.92;;;18.50;;
34711;SDS011;20941;42.408;25.634;2023-06-24T02:48:40;24.05;;;15.00;;
34711;SDS011;20941;42.408;25.634;2023-06-24T02:51:07;18.45;;;12.65;;
34711;SDS011;20941;42.408;25.634;2023-06-24T02:53:32;19.50;;;12.63;;
34711;SDS011;20941;42.408;25.634;2023-06-24T02:55:58;22.17;;;12.43;;
34711;SDS011;20941;42.408;25.634;2023-06-24T02:58:24;24.10;;;12.48;;
34711;SDS011;20941;42.408;25.634;2023-06-24T03:00:56;23.38;;;11.25;;
34711;SDS011;20941;42.408;25.634;2023-06-24T03:03:23;14.02;;;10.07;;
34711;SDS011;20941;42.408;25.634;2023-06-24T03:05:49;21.73;;;10.40;;
34711;SDS011;20941;42.408;25.634;2023-06-24T03:08:15;13.43;;;9.75;;
34711;SDS011;20941;42.408;25.634;2023-06-24T03:10:41;25.58;;;10.95;;
34711;SDS011;20941;42.408;25.634;2023-06-24T03:13:06;24.10;;;10.32;;
34711;SDS011;20941;42.408;25.634;2023-06-24T03:15:31;21.85;;;9.73;;
34711;SDS011;20941;42.408;25.634;2023-06-24T03:17:57;20.70;;;10.18;;
34711;SDS011;20941;42.408;25.634;2023-06-24T03:20:23;13.50;;;9.25;;
34711;SDS011;20941;42.408;25.634;2023-06-24T03:22:48;21.20;;;9.48;;
34711;SDS011;20941;42.408;25.634;2023-06-24T03:25:14;20.27;;;8.55;;
34711;SDS011;20941;42.408;25.634;2023-06-24T03:27:39;18.85;;;9.73;;
34711;SDS011;20941;42.408;25.634;2023-06-24T03:30:05;24.40;;;10.85;;
34711;SDS011;20941;42.408;25.634;2023-06-24T03:32:30;26.50;;;12.35;;
34711;SDS011;20941;42.408;25.634;2023-06-24T03:34:55;37.55;;;15.20;;
34711;SDS011;20941;42.408;25.634;2023-06-24T03:37:21;31.42;;;11.07;;
34711;SDS011;20941;42.408;25.634;2023-06-24T03:39:46;21.15;;;8.73;;
34711;SDS011;20941;42.408;25.634;2023-06-24T03:42:12;20.10;;;9.25;;
34711;SDS011;20941;42.408;25.634;2023-06-24T03:44:37;17.77;;;8.73;;
34711;SDS011;20941;42.408;25.634;2023-06-24T03:47:03;17.98;;;8.90;;
34711;SDS011;20941;42.408;25.634;2023-06-24T03:49:28;17.35;;;8.65;;
34711;SDS011;20941;42.408;25.634;2023-06-24T03:51:53;13.15;;;8.02;;
34711;SDS011;20941;42.408;25.634;2023-06-24T03:54:19;12.65;;;7.38;;
34711;SDS011;20941;42.408;25.634;2023-06-24T03:56:44;13.00;;;7.97;;
34711;SDS011;20941;42.408;25.634;2023-06-24T03:59:09;16.52;;;8.85;;
34711;SDS011;20941;42.408;25.634;2023-06-24T04:01:35;13.50;;;8.35;;
34711;SDS011;20941;42.408;25.634;2023-06-24T04:04:01;11.35;;;8.25;;
34711;SDS011;20941;42.408;25.634;2023-06-24T04:06:26;12.43;;;7.32;;
34711;SDS011;20941;42.408;25.634;2023-06-24T04:08:52;22.80;;;8.98;;
34711;SDS011;20941;42.408;25.634;2023-06-24T04:11:17;9.55;;;6.80;;
34711;SDS011;20941;42.408;25.634;2023-06-24T04:13:43;22.70;;;8.23;;
34711;SDS011;20941;42.408;25.634;2023-06-24T04:16:08;47.33;;;11.85;;
34711;SDS011;20941;42.408;25.634;2023-06-24T04:18:33;24.05;;;15.07;;
34711;SDS011;20941;42.408;25.634;2023-06-24T04:20:59;39.45;;;21.50;;
34711;SDS011;20941;42.408;25.634;2023-06-24T04:23:24;39.58;;;25.85;;
34711;SDS011;20941;42.408;25.634;2023-06-24T04:25:49;44.28;;;30.25;;
34711;SDS011;20941;42.408;25.634;2023-06-24T04:28:15;41.65;;;24.70;;
34711;SDS011;20941;42.408;25.634;2023-06-24T04:30:40;19.17;;;12.23;;
34711;SDS011;20941;42.408;25.634;2023-06-24T04:33:05;11.57;;;8.05;;
34711;SDS011;20941;42.408;25.634;2023-06-24T04:35:31;25.77;;;17.30;;
34711;SDS011;20941;42.408;25.634;2023-06-24T04:37:56;13.35;;;8.02;;
34711;SDS011;20941;42.408;25.634;2023-06-24T04:40:21;11.05;;;8.00;;
34711;SDS011;20941;42.408;25.634;2023-06-24T04:42:47;15.95;;;11.40;;
34711;SDS011;20941;42.408;25.634;2023-06-24T04:45:12;16.40;;;11.35;;
34711;SDS011;20941;42.408;25.634;2023-06-24T04:47:38;12.10;;;7.32;;
34711;SDS011;20941;42.408;25.634;2023-06-24T04:50:03;17.60;;;8.65;;
34711;SDS011;20941;42.408;25.634;2023-06-24T04:52:29;22.35;;;14.48;;
34711;SDS011;20941;42.408;25.634;2023-06-24T04:54:54;14.68;;;10.27;;
34711;SDS011;20941;42.408;25.634;2023-06-24T04:57:27;9.85;;;6.53;;
34711;SDS011;20941;42.408;25.634;2023-06-24T04:59:53;10.23;;;6.35;;
34711;SDS011;20941;42.408;25.634;2023-06-24T05:02:18;8.02;;;6.25;;
34711;SDS011;20941;42.408;25.634;2023-06-24T05:04:43;12.90;;;6.93;;
34711;SDS011;20941;42.408;25.634;2023-06-24T05:07:09;10.35;;;6.82;;
34711;SDS011;20941;42.408;25.634;2023-06-24T05:09:34;14.10;;;6.95;;
34711;SDS011;20941;42.408;25.634;2023-06-24T05:12:03;11.23;;;6.10;;
34711;SDS011;20941;42.408;25.634;2023-06-24T05:14:28;7.93;;;5.57;;
34711;SDS011;20941;42.408;25.634;2023-06-24T05:16:53;8.40;;;5.85;;
34711;SDS011;20941;42.408;25.634;2023-06-24T05:19:19;7.38;;;5.75;;
34711;SDS011;20941;42.408;25.634;2023-06-24T05:21:44;12.80;;;6.55;;
34711;SDS011;20941;42.408;25.634;2023-06-24T05:24:09;10.52;;;6.30;;
34711;SDS011;20941;42.408;25.634;2023-06-24T05:26:35;12.43;;;6.47;;
34711;SDS011;20941;42.408;25.634;2023-06-24T05:29:00;11.13;;;6.68;;
34711;SDS011;20941;42.408;25.634;2023-06-24T05:31:25;8.27;;;6.50;;
34711;SDS011;20941;42.408;25.634;2023-06-24T05:33:51;10.63;;;6.50;;
34711;SDS011;20941;42.408;25.634;2023-06-24T05:36:16;13.57;;;7.03;;
34711;SDS011;20941;42.408;25.634;2023-06-24T05:38:41;9.50;;;6.88;;
34711;SDS011;20941;42.408;25.634;2023-06-24T05:41:06;17.90;;;7.70;;
34711;SDS011;20941;42.408;25.634;2023-06-24T05:43:32;13.15;;;8.27;;
34711;SDS011;20941;42.408;25.634;2023-06-24T05:45:57;11.73;;;7.88;;
34711;SDS011;20941;42.408;25.634;2023-06-24T05:48:24;11.82;;;6.68;;
34711;SDS011;20941;42.408;25.634;2023-06-24T05:50:49;10.10;;;6.38;;
34711;SDS011;20941;42.408;25.634;2023-06-24T05:53:14;11.05;;;6.88;;
34711;SDS011;20941;42.408;25.634;2023-06-24T05:55:40;13.82;;;6.60;;
34711;SDS011;20941;42.408;25.634;2023-06-24T05:58:05;9.63;;;6.90;;
34711;SDS011;20941;42.408;25.634;2023-06-24T06:00:30;13.90;;;7.53;;
34711;SDS011;20941;42.408;25.634;2023-06-24T06:02:56;11.32;;;7.00;;
34711;SDS011;20941;42.408;25.634;2023-06-24T06:05:21;10.88;;;6.80;;
34711;SDS011;20941;42.408;25.634;2023-06-24T06:07:47;8.82;;;7.18;;
34711;SDS011;20941;42.408;25.634;2023-06-24T06:10:13;27.20;;;8.32;;
34711;SDS011;20941;42.408;25.634;2023-06-24T06:12:42;10.75;;;6.50;;
34711;SDS011;20941;42.408;25.634;2023-06-24T06:15:07;8.77;;;6.65;;
34711;SDS011;20941;42.408;25.634;2023-06-24T06:17:33;11.82;;;7.43;;
34711;SDS011;20941;42.408;25.634;2023-06-24T06:19:58;11.63;;;7.38;;
34711;SDS011;20941;42.408;25.634;2023-06-24T06:22:24;8.68;;;6.93;;
34711;SDS011;20941;42.408;25.634;2023-06-24T06:24:49;11.77;;;7.00;;
34711;SDS011;20941;42.408;25.634;2023-06-24T06:27:14;12.65;;;7.80;;
34711;SDS011;20941;42.408;25.634;2023-06-24T06:29:40;11.20;;;7.90;;
34711;SDS011;20941;42.408;25.634;2023-06-24T06:32:05;11.32;;;6.78;;
34711;SDS011;20941;42.408;25.634;2023-06-24T06:34:31;10.50;;;7.05;;
34711;SDS011;20941;42.408;25.634;2023-06-24T06:36:56;7.30;;;5.90;;
34711;SDS011;20941;42.408;25.634;2023-06-24T06:39:23;9.05;;;6.55;;
34711;SDS011;20941;42.408;25.634;2023-06-24T06:41:48;12.60;;;6.47;;
34711;SDS011;20941;42.408;25.634;2023-06-24T06:44:14;8.88;;;6.53;;
34711;SDS011;20941;42.408;25.634;2023-06-24T06:46:39;9.32;;;6.32;;
34711;SDS011;20941;42.408;25.634;2023-06-24T06:49:04;11.13;;;6.32;;
34711;SDS011;20941;42.408;25.634;2023-06-24T06:51:30;9.38;;;6.00;;
34711;SDS011;20941;42.408;25.634;2023-06-24T06:53:55;9.48;;;6.00;;
34711;SDS011;20941;42.408;25.634;2023-06-24T06:56:24;6.35;;;5.22;;
34711;SDS011;20941;42.408;25.634;2023-06-24T06:58:50;11.80;;;5.60;;
34711;SDS011;20941;42.408;25.634;2023-06-24T07:01:15;10.98;;;6.03;;
34711;SDS011;20941;42.408;25.634;2023-06-24T07:03:40;7.13;;;5.07;;
34711;SDS011;20941;42.408;25.634;2023-06-24T07:06:06;10.73;;;5.97;;
34711;SDS011;20941;42.408;25.634;2023-06-24T07:08:31;12.85;;;6.07;;
34711;SDS011;20941;42.408;25.634;2023-06-24T07:10:58;10.95;;;6.07;;
34711;SDS011;20941;42.408;25.634;2023-06-24T07:13:23;9.75;;;5.57;;
34711;SDS011;20941;42.408;25.634;2023-06-24T07:15:48;10.73;;;5.45;;
34711;SDS011;20941;42.408;25.634;2023-06-24T07:18:14;8.27;;;5.97;;
34711;SDS011;20941;42.408;25.634;2023-06-24T07:20:39;24.55;;;6.32;;
34711;SDS011;20941;42.408;25.634;2023-06-24T07:23:04;7.00;;;5.72;;
34711;SDS011;20941;42.408;25.634;2023-06-24T07:25:30;7.38;;;5.38;;
34711;SDS011;20941;42.408;25.634;2023-06-24T07:27:55;8.98;;;5.32;;
34711;SDS011;20941;42.408;25.634;2023-06-24T07:30:21;8.45;;;6.10;;
34711;SDS011;20941;42.408;25.634;2023-06-24T07:32:46;6.07;;;5.43;;
34711;SDS011;20941;42.408;25.634;2023-06-24T07:35:11;9.55;;;5.43;;
34711;SDS011;20941;42.408;25.634;2023-06-24T07:37:38;9.13;;;5.53;;
34711;SDS011;20941;42.408;25.634;2023-06-24T07:40:04;36.33;;;21.88;;
34711;SDS011;20941;42.408;25.634;2023-06-24T07:42:30;12.68;;;7.05;;
34711;SDS011;20941;42.408;25.634;2023-06-24T07:44:55;7.85;;;5.13;;
34711;SDS011;20941;42.408;25.634;2023-06-24T07:47:21;6.93;;;5.15;;
34711;SDS011;20941;42.408;25.634;2023-06-24T07:49:46;5.70;;;5.05;;
34711;SDS011;20941;42.408;25.634;2023-06-24T07:52:11;10.10;;;5.25;;
34711;SDS011;20941;42.408;25.634;2023-06-24T07:54:37;6.32;;;5.15;;
34711;SDS011;20941;42.408;25.634;2023-06-24T07:57:02;12.18;;;6.05;;
34711;SDS011;20941;42.408;25.634;2023-06-24T07:59:28;6.68;;;5.38;;
34711;SDS011;20941;42.408;25.634;2023-06-24T08:01:53;8.75;;;5.78;;
34711;SDS011;20941;42.408;25.634;2023-06-24T08:04:19;11.30;;;5.38;;
34711;SDS011;20941;42.408;25.634;2023-06-24T08:06:44;5.95;;;5.20;;
34711;SDS011;20941;42.408;25.634;2023-06-24T08:09:10;6.88;;;5.07;;
34711;SDS011;20941;42.408;25.634;2023-06-24T08:11:35;6.90;;;4.80;;
34711;SDS011;20941;42.408;25.634;2023-06-24T08:14:00;6.22;;;4.63;;
34711;SDS011;20941;42.408;25.634;2023-06-24T08:16:26;5.68;;;4.82;;
34711;SDS011;20941;42.408;25.634;2023-06-24T08:18:52;9.43;;;5.50;;
34711;SDS011;20941;42.408;25.634;2023-06-24T08:21:18;8.10;;;5.75;;
34711;SDS011;20941;42.408;25.634;2023-06-24T08:23:43;9.70;;;5.97;;
34711;SDS011;20941;42.408;25.634;2023-06-24T08:26:09;9.02;;;5.40;;
34711;SDS011;20941;42.408;25.634;2023-06-24T08:28:35;14.82;;;5.72;;
34711;SDS011;20941;42.408;25.634;2023-06-24T08:31:00;9.68;;;5.22;;
34711;SDS011;20941;42.408;25.634;2023-06-24T08:33:26;6.38;;;5.35;;
34711;SDS011;20941;42.408;25.634;2023-06-24T08:35:51;8.38;;;5.43;;
34711;SDS011;20941;42.408;25.634;2023-06-24T08:38:16;8.15;;;5.10;;
34711;SDS011;20941;42.408;25.634;2023-06-24T08:40:42;7.30;;;5.32;;
34711;SDS011;20941;42.408;25.634;2023-06-24T08:43:08;8.63;;;5.75;;
34711;SDS011;20941;42.408;25.634;2023-06-24T08:45:34;12.95;;;6.10;;
34711;SDS011;20941;42.408;25.634;2023-06-24T08:47:59;9.82;;;5.28;;
34711;SDS011;20941;42.408;25.634;2023-06-24T08:50:27;12.63;;;5.90;;
34711;SDS011;20941;42.408;25.634;2023-06-24T08:52:55;13.32;;;6.18;;
34711;SDS011;20941;42.408;25.634;2023-06-24T08:55:22;10.65;;;5.68;;
34711;SDS011;20941;42.408;25.634;2023-06-24T08:57:47;6.80;;;5.10;;
34711;SDS011;20941;42.408;25.634;2023-06-24T09:00:13;6.38;;;5.05;;
34711;SDS011;20941;42.408;25.634;2023-06-24T09:02:39;10.57;;;5.63;;
34711;SDS011;20941;42.408;25.634;2023-06-24T09:05:05;7.55;;;5.30;;
34711;SDS011;20941;42.408;25.634;2023-06-24T09:07:30;13.50;;;6.30;;
34711;SDS011;20941;42.408;25.634;2023-06-24T09:09:56;6.32;;;4.70;;
34711;SDS011;20941;42.408;25.634;2023-06-24T09:12:21;7.50;;;5.45;;
34711;SDS011;20941;42.408;25.634;2023-06-24T09:14:50;9.10;;;5.70;;
34711;SDS011;20941;42.408;25.634;2023-06-24T09:17:16;7.20;;;5.05;;
34711;SDS011;20941;42.408;25.634;2023-06-24T09:19:41;8.30;;;5.53;;
34711;SDS011;20941;42.408;25.634;2023-06-24T09:22:07;9.40;;;5.78;;
34711;SDS011;20941;42.408;25.634;2023-06-24T09:24:33;6.97;;;5.45;;
34711;SDS011;20941;42.408;25.634;2023-06-24T09:26:58;10.13;;;6.47;;
34711;SDS011;20941;42.408;25.634;2023-06-24T09:29:29;7.43;;;5.32;;
34711;SDS011;20941;42.408;25.634;2023-06-24T09:31:56;10.73;;;5.55;;
34711;SDS011;20941;42.408;25.634;2023-06-24T09:34:23;9.13;;;5.40;;
34711;SDS011;20941;42.408;25.634;2023-06-24T09:36:52;7.50;;;5.60;;
34711;SDS011;20941;42.408;25.634;2023-06-24T09:39:18;9.60;;;5.57;;
34711;SDS011;20941;42.408;25.634;2023-06-24T09:41:47;7.03;;;5.78;;
34711;SDS011;20941;42.408;25.634;2023-06-24T09:44:14;8.30;;;5.07;;
34711;SDS011;20941;42.408;25.634;2023-06-24T09:46:41;8.15;;;5.60;;
34711;SDS011;20941;42.408;25.634;2023-06-24T09:49:07;8.07;;;6.07;;
34711;SDS011;20941;42.408;25.634;2023-06-24T09:51:42;12.43;;;6.30;;
34711;SDS011;20941;42.408;25.634;2023-06-24T09:54:08;6.43;;;5.70;;
34711;SDS011;20941;42.408;25.634;2023-06-24T09:56:35;7.30;;;5.88;;
34711;SDS011;20941;42.408;25.634;2023-06-24T09:59:01;11.52;;;6.05;;
34711;SDS011;20941;42.408;25.634;2023-06-24T10:01:28;9.98;;;6.10;;
34711;SDS011;20941;42.408;25.634;2023-06-24T10:03:54;8.50;;;6.03;;
34711;SDS011;20941;42.408;25.634;2023-06-24T10:06:20;7.97;;;6.10;;
34711;SDS011;20941;42.408;25.634;2023-06-24T10:08:45;8.93;;;5.80;;
34711;SDS011;20941;42.408;25.634;2023-06-24T10:11:11;7.18;;;5.35;;
34711;SDS011;20941;42.408;25.634;2023-06-24T10:13:36;7.30;;;5.47;;
34711;SDS011;20941;42.408;25.634;2023-06-24T10:16:01;5.82;;;5.15;;
34711;SDS011;20941;42.408;25.634;2023-06-24T10:18:33;8.98;;;5.60;;
34711;SDS011;20941;42.408;25.634;2023-06-24T10:21:00;5.68;;;5.00;;
34711;SDS011;20941;42.408;25.634;2023-06-24T10:23:58;6.38;;;5.43;;
34711;SDS011;20941;42.408;25.634;2023-06-24T10:26:29;8.77;;;5.32;;
34711;SDS011;20941;42.408;25.634;2023-06-24T10:31:59;8.13;;;5.65;;
34711;SDS011;20941;42.408;25.634;2023-06-24T10:34:28;7.18;;;5.40;;
34711;SDS011;20941;42.408;25.634;2023-06-24T10:36:58;6.38;;;5.47;;
34711;SDS011;20941;42.408;25.634;2023-06-24T10:39:39;7.82;;;5.68;;
34711;SDS011;20941;42.408;25.634;2023-06-24T10:44:52;6.85;;;5.53;;
34711;SDS011;20941;42.408;25.634;2023-06-24T10:47:18;8.52;;;5.13;;
34711;SDS011;20941;42.408;25.634;2023-06-24T10:49:43;7.75;;;5.45;;
34711;SDS011;20941;42.408;25.634;2023-06-24T10:52:09;8.52;;;5.50;;
34711;SDS011;20941;42.408;25.634;2023-06-24T10:54:35;11.73;;;5.65;;
34711;SDS011;20941;42.408;25.634;2023-06-24T10:57:02;14.10;;;5.95;;
34711;SDS011;20941;42.408;25.634;2023-06-24T10:59:27;7.18;;;5.43;;
34711;SDS011;20941;42.408;25.634;2023-06-24T11:01:53;11.73;;;5.80;;
34711;SDS011;20941;42.408;25.634;2023-06-24T11:04:19;6.07;;;5.35;;
34711;SDS011;20941;42.408;25.634;2023-06-24T11:06:56;9.52;;;6.10;;
34711;SDS011;20941;42.408;25.634;2023-06-24T11:09:22;5.72;;;5.18;;
34711;SDS011;20941;42.408;25.634;2023-06-24T11:11:47;8.25;;;5.60;;
34711;SDS011;20941;42.408;25.634;2023-06-24T11:14:12;8.15;;;5.13;;
34711;SDS011;20941;42.408;25.634;2023-06-24T11:16:40;7.93;;;5.50;;
34711;SDS011;20941;42.408;25.634;2023-06-24T11:19:05;7.78;;;4.82;;
34711;SDS011;20941;42.408;25.634;2023-06-24T11:21:31;6.20;;;5.60;;
34711;SDS011;20941;42.408;25.634;2023-06-24T11:24:02;6.25;;;5.03;;
34711;SDS011;20941;42.408;25.634;2023-06-24T11:26:27;7.57;;;5.22;;
34711;SDS011;20941;42.408;25.634;2023-06-24T11:28:53;7.00;;;4.93;;
34711;SDS011;20941;42.408;25.634;2023-06-24T11:31:18;5.47;;;4.97;;
34711;SDS011;20941;42.408;25.634;2023-06-24T11:33:48;6.32;;;5.28;;
34711;SDS011;20941;42.408;25.634;2023-06-24T11:36:16;6.47;;;5.18;;
34711;SDS011;20941;42.408;25.634;2023-06-24T11:38:41;8.32;;;5.05;;
34711;SDS011;20941;42.408;25.634;2023-06-24T11:41:07;7.65;;;5.03;;
34711;SDS011;20941;42.408;25.634;2023-06-24T11:43:32;6.03;;;5.40;;
34711;SDS011;20941;42.408;25.634;2023-06-24T11:45:58;7.45;;;5.45;;
34711;SDS011;20941;42.408;25.634;2023-06-24T11:48:27;5.85;;;5.35;;
34711;SDS011;20941;42.408;25.634;2023-06-24T11:50:53;6.85;;;5.47;;
34711;SDS011;20941;42.408;25.634;2023-06-24T11:53:22;6.85;;;5.47;;
34711;SDS011;20941;42.408;25.634;2023-06-24T11:55:51;5.50;;;5.00;;
34711;SDS011;20941;42.408;25.634;2023-06-24T11:58:19;7.07;;;5.72;;
34711;SDS011;20941;42.408;25.634;2023-06-24T12:00:44;7.78;;;5.55;;
34711;SDS011;20941;42.408;25.634;2023-06-24T12:03:12;6.82;;;5.32;;
34711;SDS011;20941;42.408;25.634;2023-06-24T12:05:37;6.55;;;5.03;;
34711;SDS011;20941;42.408;25.634;2023-06-24T12:08:05;6.40;;;5.68;;
34711;SDS011;20941;42.408;25.634;2023-06-24T12:10:31;5.65;;;5.15;;
34711;SDS011;20941;42.408;25.634;2023-06-24T12:13:03;7.05;;;5.88;;
34711;SDS011;20941;42.408;25.634;2023-06-24T12:15:28;7.93;;;5.63;;
34711;SDS011;20941;42.408;25.634;2023-06-24T12:17:54;6.18;;;5.53;;
34711;SDS011;20941;42.408;25.634;2023-06-24T12:20:19;6.82;;;5.72;;
34711;SDS011;20941;42.408;25.634;2023-06-24T12:22:46;5.80;;;5.28;;
34711;SDS011;20941;42.408;25.634;2023-06-24T12:25:11;7.50;;;5.60;;
34711;SDS011;20941;42.408;25.634;2023-06-24T12:27:37;10.57;;;5.53;;
34711;SDS011;20941;42.408;25.634;2023-06-24T12:30:03;6.40;;;5.80;;
34711;SDS011;20941;42.408;25.634;2023-06-24T12:32:28;6.43;;;5.18;;
34711;SDS011;20941;42.408;25.634;2023-06-24T12:34:54;5.65;;;5.15;;
34711;SDS011;20941;42.408;25.634;2023-06-24T12:37:19;8.45;;;5.00;;
34711;SDS011;20941;42.408;25.634;2023-06-24T12:39:44;5.22;;;4.82;;
34711;SDS011;20941;42.408;25.634;2023-06-24T12:42:10;6.50;;;4.90;;
34711;SDS011;20941;42.408;25.634;2023-06-24T12:44:36;6.18;;;5.53;;
34711;SDS011;20941;42.408;25.634;2023-06-24T12:47:01;6.30;;;5.57;;
34711;SDS011;20941;42.408;25.634;2023-06-24T12:49:27;5.82;;;5.30;;
34711;SDS011;20941;42.408;25.634;2023-06-24T12:51:53;6.28;;;5.68;;
34711;SDS011;20941;42.408;25.634;2023-06-24T12:54:18;7.10;;;5.22;;
34711;SDS011;20941;42.408;25.634;2023-06-24T12:56:43;5.82;;;5.20;;
34711;SDS011;20941;42.408;25.634;2023-06-24T12:59:09;5.90;;;5.35;;
34711;SDS011;20941;42.408;25.634;2023-06-24T13:01:34;9.70;;;5.10;;
34711;SDS011;20941;42.408;25.634;2023-06-24T13:03:59;8.23;;;5.95;;
34711;SDS011;20941;42.408;25.634;2023-06-24T13:06:25;6.47;;;5.68;;
34711;SDS011;20941;42.408;25.634;2023-06-24T13:08:50;6.10;;;5.50;;
34711;SDS011;20941;42.408;25.634;2023-06-24T13:11:16;7.20;;;5.72;;
34711;SDS011;20941;42.408;25.634;2023-06-24T13:13:42;6.40;;;5.25;;
34711;SDS011;20941;42.408;25.634;2023-06-24T13:16:07;6.45;;;5.40;;
34711;SDS011;20941;42.408;25.634;2023-06-24T13:18:32;5.65;;;5.03;;
34711;SDS011;20941;42.408;25.634;2023-06-24T13:20:58;6.32;;;5.05;;
34711;SDS011;20941;42.408;25.634;2023-06-24T13:23:23;6.40;;;5.47;;
34711;SDS011;20941;42.408;25.634;2023-06-24T13:25:48;7.07;;;4.77;;
34711;SDS011;20941;42.408;25.634;2023-06-24T13:28:14;6.10;;;4.97;;
34711;SDS011;20941;42.408;25.634;2023-06-24T13:30:39;6.17;;;5.50;;
34711;SDS011;20941;42.408;25.634;2023-06-24T13:33:04;5.97;;;4.70;;
34711;SDS011;20941;42.408;25.634;2023-06-24T13:35:30;6.90;;;4.80;;
34711;SDS011;20941;42.408;25.634;2023-06-24T13:37:55;6.82;;;4.93;;
34711;SDS011;20941;42.408;25.634;2023-06-24T13:40:20;5.30;;;4.80;;
34711;SDS011;20941;42.408;25.634;2023-06-24T13:42:46;5.30;;;4.80;;
34711;SDS011;20941;42.408;25.634;2023-06-24T13:45:11;5.13;;;4.63;;
34711;SDS011;20941;42.408;25.634;2023-06-24T13:47:36;5.32;;;4.82;;
34711;SDS011;20941;42.408;25.634;2023-06-24T13:50:02;4.90;;;4.40;;
34711;SDS011;20941;42.408;25.634;2023-06-24T13:52:29;4.70;;;4.18;;
34711;SDS011;20941;42.408;25.634;2023-06-24T13:54:54;4.35;;;3.95;;
34711;SDS011;20941;42.408;25.634;2023-06-24T13:57:22;4.40;;;4.00;;
34711;SDS011;20941;42.408;25.634;2023-06-24T13:59:48;3.80;;;3.60;;
34711;SDS011;20941;42.408;25.634;2023-06-24T14:02:14;5.97;;;3.67;;
34711;SDS011;20941;42.408;25.634;2023-06-24T14:04:39;4.05;;;3.60;;
34711;SDS011;20941;42.408;25.634;2023-06-24T14:07:05;4.70;;;3.83;;
34711;SDS011;20941;42.408;25.634;2023-06-24T14:09:31;3.90;;;3.60;;
34711;SDS011;20941;42.408;25.634;2023-06-24T14:11:56;4.30;;;3.20;;
34711;SDS011;20941;42.408;25.634;2023-06-24T14:14:22;4.30;;;3.53;;
34711;SDS011;20941;42.408;25.634;2023-06-24T14:16:47;4.78;;;3.70;;
34711;SDS011;20941;42.408;25.634;2023-06-24T14:19:12;19.10;;;3.65;;
34711;SDS011;20941;42.408;25.634;2023-06-24T14:21:38;3.30;;;3.10;;
34711;SDS011;20941;42.408;25.634;2023-06-24T14:24:04;6.60;;;3.67;;
34711;SDS011;20941;42.408;25.634;2023-06-24T14:26:30;4.32;;;3.92;;
34711;SDS011;20941;42.408;25.634;2023-06-24T14:28:55;5.30;;;3.85;;
34711;SDS011;20941;42.408;25.634;2023-06-24T14:31:21;4.68;;;4.05;;
34711;SDS011;20941;42.408;25.634;2023-06-24T14:33:46;7.23;;;3.70;;